createdAt,value
2019-03-21T00:00:22.129Z,1.93
2019-03-21T00:02:49.389Z,2.53
2019-03-21T00:05:16.696Z,2.20
2019-03-21T00:07:44.219Z,2.03
2019-03-21T00:10:44.324Z,2.10
2019-03-21T00:13:11.981Z,2.13
2019-03-21T00:15:41.139Z,2.20
2019-03-21T00:18:10.275Z,2.20
2019-03-21T00:20:37.769Z,1.97
2019-03-21T00:23:05.059Z,1.87
2019-03-21T00:25:32.466Z,2.60
2019-03-21T00:27:59.809Z,1.90
2019-03-21T00:30:29.292Z,1.73
2019-03-21T00:32:56.842Z,1.90
2019-03-21T00:35:24.171Z,2.50
2019-03-21T00:37:51.492Z,2.37
2019-03-21T00:40:22.170Z,2.43
2019-03-21T00:42:50.180Z,2.60
2019-03-21T00:45:17.700Z,2.10
2019-03-21T00:47:45.176Z,2.03
2019-03-21T00:50:14.269Z,1.80
2019-03-21T00:52:41.491Z,2.33
2019-03-21T00:55:09.994Z,2.40
2019-03-21T00:57:37.252Z,2.13
2019-03-21T01:00:05.693Z,1.97
2019-03-21T01:02:32.894Z,2.20
2019-03-21T01:05:00.074Z,1.90
2019-03-21T01:07:27.308Z,2.17
2019-03-21T01:09:54.638Z,2.33
2019-03-21T01:12:21.865Z,2.10
2019-03-21T01:14:49.301Z,1.80
2019-03-21T01:17:16.693Z,2.23
2019-03-21T01:19:43.940Z,2.00
2019-03-21T01:22:11.402Z,1.87
2019-03-21T01:24:38.705Z,2.00
2019-03-21T01:27:05.924Z,2.70
2019-03-21T01:29:33.374Z,1.73
2019-03-21T01:32:00.672Z,1.70
2019-03-21T01:34:30.267Z,1.70
2019-03-21T01:36:57.463Z,2.20
2019-03-21T01:39:24.689Z,1.83
2019-03-21T01:41:52.078Z,2.17
2019-03-21T01:44:19.305Z,1.47
2019-03-21T01:46:46.804Z,2.33
2019-03-21T01:49:14.211Z,1.93
2019-03-21T01:51:41.433Z,2.00
2019-03-21T01:54:08.618Z,1.83
2019-03-21T01:56:35.949Z,1.97
2019-03-21T01:59:03.611Z,1.80
2019-03-21T02:01:30.745Z,2.13
2019-03-21T02:03:58.108Z,1.70
2019-03-21T02:06:25.480Z,1.57
2019-03-21T02:08:52.844Z,2.30
2019-03-21T02:11:20.081Z,2.10
2019-03-21T02:13:47.385Z,1.50
2019-03-21T02:16:14.757Z,2.00
2019-03-21T02:18:42.391Z,2.00
2019-03-21T02:21:09.703Z,1.87
2019-03-21T02:23:36.972Z,2.20
2019-03-21T02:26:04.408Z,2.00
2019-03-21T02:28:31.772Z,1.73
2019-03-21T02:30:59.003Z,2.17
2019-03-21T02:33:28.628Z,2.00
2019-03-21T02:35:55.857Z,1.90
2019-03-21T02:38:23.181Z,2.03
2019-03-21T02:40:50.729Z,1.80
2019-03-21T02:43:18.056Z,1.83
2019-03-21T02:45:45.451Z,1.77
2019-03-21T02:48:12.781Z,2.10
2019-03-21T02:50:39.971Z,1.77
2019-03-21T02:53:07.347Z,1.57
2019-03-21T02:55:34.726Z,1.90
2019-03-21T02:58:01.909Z,1.90
2019-03-21T03:00:30.321Z,2.10
2019-03-21T03:02:58.526Z,1.93
2019-03-21T03:05:26.878Z,1.73
2019-03-21T03:07:54.073Z,1.77
2019-03-21T03:10:24.486Z,1.67
2019-03-21T03:12:51.788Z,1.60
2019-03-21T03:15:22.932Z,1.40
2019-03-21T03:17:49.175Z,1.83
2019-03-21T03:20:16.518Z,1.63
2019-03-21T03:22:43.800Z,1.87
2019-03-21T03:25:11.787Z,1.90
2019-03-21T03:27:39.040Z,2.30
2019-03-21T03:30:09.437Z,2.03
2019-03-21T03:32:36.831Z,1.63
2019-03-21T03:35:05.355Z,1.70
2019-03-21T03:37:32.656Z,1.73
2019-03-21T03:39:59.936Z,1.90
2019-03-21T03:42:27.166Z,1.90
2019-03-21T03:44:54.491Z,2.07
2019-03-21T03:47:21.652Z,1.87
2019-03-21T03:49:48.970Z,1.33
2019-03-21T03:52:16.162Z,1.90
2019-03-21T03:54:43.380Z,1.37
2019-03-21T03:57:10.753Z,2.13
2019-03-21T03:59:38.371Z,1.70
2019-03-21T04:02:05.545Z,1.53
2019-03-21T04:04:32.737Z,2.17
2019-03-21T04:06:59.982Z,1.80
2019-03-21T04:09:27.234Z,1.90
2019-03-21T04:11:54.571Z,1.97
2019-03-21T04:14:21.716Z,1.47
2019-03-21T04:16:49.006Z,1.97
2019-03-21T04:19:16.299Z,1.97
2019-03-21T04:21:43.682Z,1.20
2019-03-21T04:24:10.897Z,1.70
2019-03-21T04:26:38.180Z,1.70
2019-03-21T04:29:05.358Z,2.33
2019-03-21T04:31:32.910Z,1.20
2019-03-21T04:34:01.806Z,1.53
2019-03-21T04:36:29.812Z,1.97
2019-03-21T04:38:58.064Z,1.70
2019-03-21T04:41:25.430Z,1.40
2019-03-21T04:43:52.655Z,1.40
2019-03-21T04:46:20.038Z,1.27
2019-03-21T04:48:47.430Z,1.63
2019-03-21T04:51:14.833Z,1.33
2019-03-21T04:53:42.124Z,2.30
2019-03-21T04:56:09.458Z,1.90
2019-03-21T04:58:36.546Z,2.10
2019-03-21T05:01:04.081Z,2.00
2019-03-21T05:03:31.320Z,1.90
2019-03-21T05:05:58.514Z,1.40
2019-03-21T05:08:26.014Z,1.50
2019-03-21T05:10:53.663Z,1.47
2019-03-21T05:13:20.885Z,1.87
2019-03-21T05:15:48.324Z,1.47
2019-03-21T05:18:28.612Z,1.70
2019-03-21T05:20:56.310Z,1.70
2019-03-21T05:23:23.529Z,1.57
2019-03-21T05:25:50.812Z,1.73
2019-03-21T05:28:18.150Z,1.70
2019-03-21T05:30:49.267Z,1.10
2019-03-21T05:33:16.828Z,1.70
2019-03-21T05:35:44.269Z,1.50
2019-03-21T05:38:11.931Z,2.03
2019-03-21T05:40:39.216Z,1.43
2019-03-21T05:43:09.881Z,1.80
2019-03-21T05:45:37.256Z,1.43
2019-03-21T05:48:04.832Z,1.77
2019-03-21T05:50:32.055Z,1.53
2019-03-21T05:52:59.275Z,1.83
2019-03-21T05:55:26.910Z,1.70
2019-03-21T05:57:54.476Z,2.03
2019-03-21T06:00:28.223Z,1.50
2019-03-21T06:02:55.539Z,2.17
2019-03-21T06:05:22.905Z,1.70
2019-03-21T06:08:11.451Z,1.43
2019-03-21T06:10:38.915Z,1.70
2019-03-21T06:13:06.157Z,1.70
2019-03-21T06:15:34.477Z,1.50
2019-03-21T06:18:49.722Z,1.73
2019-03-21T06:21:24.556Z,1.77
2019-03-21T06:24:29.618Z,1.27
2019-03-21T06:27:33.489Z,1.50
2019-03-21T06:30:00.968Z,1.57
2019-03-21T06:32:28.730Z,1.60
2019-03-21T06:34:56.394Z,1.77
2019-03-21T06:37:24.075Z,2.00
2019-03-21T06:39:51.288Z,1.90
2019-03-21T06:42:18.763Z,1.90
2019-03-21T06:44:46.160Z,1.47
2019-03-21T06:47:13.431Z,1.87
2019-03-21T06:49:40.779Z,1.80
2019-03-21T06:52:08.402Z,2.20
2019-03-21T06:54:35.770Z,1.63
2019-03-21T06:57:03.183Z,1.40
2019-03-21T06:59:31.136Z,1.90
2019-03-21T07:01:58.319Z,1.80
2019-03-21T07:04:25.448Z,1.50
2019-03-21T07:06:53.118Z,1.80
2019-03-21T07:09:29.463Z,1.60
2019-03-21T07:11:56.844Z,1.80
2019-03-21T07:14:24.105Z,1.53
2019-03-21T07:17:00.101Z,1.60
2019-03-21T07:19:20.397Z,1.77
2019-03-21T07:21:47.688Z,1.80
2019-03-21T07:24:14.941Z,1.67
2019-03-21T07:26:42.035Z,2.23
2019-03-21T07:29:09.323Z,2.17
2019-03-21T07:31:36.684Z,2.13
2019-03-21T07:34:04.300Z,1.37
2019-03-21T07:36:31.645Z,1.50
2019-03-21T07:38:58.934Z,1.80
2019-03-21T07:41:26.176Z,1.63
2019-03-21T07:43:53.531Z,2.03
2019-03-21T07:46:20.988Z,1.83
2019-03-21T07:48:48.146Z,1.87
2019-03-21T07:51:15.511Z,2.03
2019-03-21T07:53:42.833Z,2.10
2019-03-21T07:56:10.121Z,1.87
2019-03-21T07:58:37.488Z,2.20
2019-03-21T08:01:04.828Z,2.13
2019-03-21T08:03:32.011Z,2.70
2019-03-21T08:05:59.188Z,2.60
2019-03-21T08:08:26.523Z,2.47
2019-03-21T08:10:53.706Z,2.30
2019-03-21T08:13:21.027Z,2.80
2019-03-21T08:15:48.334Z,2.20
2019-03-21T08:18:16.784Z,2.83
2019-03-21T08:20:55.649Z,2.50
2019-03-21T08:23:13.117Z,2.50
2019-03-21T08:25:40.531Z,2.57
2019-03-21T08:28:08.013Z,2.80
2019-03-21T08:30:36.375Z,2.33
2019-03-21T08:33:04.489Z,2.87
2019-03-21T08:35:31.786Z,2.00
2019-03-21T08:37:58.971Z,2.20
2019-03-21T08:40:26.283Z,2.10
2019-03-21T08:42:53.528Z,1.97
2019-03-21T08:45:20.897Z,1.93
2019-03-21T08:47:48.132Z,2.20
2019-03-21T08:50:15.407Z,2.30
2019-03-21T08:52:42.762Z,2.33
2019-03-21T08:55:09.965Z,2.60
2019-03-21T08:57:37.160Z,2.30
2019-03-21T09:00:05.140Z,2.40
2019-03-21T09:02:32.503Z,2.27
2019-03-21T09:04:59.972Z,2.40
2019-03-21T09:07:27.134Z,2.67
2019-03-21T09:09:54.349Z,2.67
2019-03-21T09:12:21.712Z,2.33
2019-03-21T09:14:48.895Z,2.60
2019-03-21T09:17:16.082Z,2.93
2019-03-21T09:19:43.291Z,2.47
2019-03-21T09:22:11.669Z,3.37
2019-03-21T09:24:38.865Z,2.87
2019-03-21T09:27:06.070Z,2.50
2019-03-21T09:29:33.405Z,2.77
2019-03-21T09:32:00.700Z,3.40
2019-03-21T09:34:27.910Z,3.20
2019-03-21T09:36:56.165Z,2.87
2019-03-21T09:39:23.521Z,3.00
2019-03-21T09:41:50.808Z,3.10
2019-03-21T09:44:25.502Z,2.70
2019-03-21T09:46:52.685Z,3.07
2019-03-21T09:49:19.889Z,2.33
2019-03-21T09:51:47.083Z,4.63
2019-03-21T09:54:14.304Z,3.00
2019-03-21T09:56:41.547Z,2.90
2019-03-21T09:59:08.849Z,2.80
2019-03-21T10:01:36.148Z,3.07
2019-03-21T10:04:03.566Z,2.40
2019-03-21T10:06:30.832Z,2.63
2019-03-21T10:08:58.249Z,2.60
2019-03-21T10:11:25.353Z,2.60
2019-03-21T10:13:52.538Z,2.73
2019-03-21T10:16:21.030Z,2.80
2019-03-21T10:18:48.219Z,2.90
2019-03-21T10:21:15.365Z,2.73
2019-03-21T10:23:42.745Z,2.33
2019-03-21T10:26:09.882Z,2.60
2019-03-21T10:28:37.191Z,2.30
2019-03-21T10:31:04.486Z,2.10
2019-03-21T10:33:31.581Z,2.23
2019-03-21T10:35:58.985Z,2.60
2019-03-21T10:38:26.223Z,2.10
2019-03-21T10:40:53.505Z,2.20
2019-03-21T10:43:20.674Z,2.30
2019-03-21T10:45:48.028Z,2.60
2019-03-21T10:48:15.221Z,2.73
2019-03-21T10:50:42.504Z,1.93
2019-03-21T10:53:09.865Z,2.10
2019-03-21T10:55:37.620Z,2.33
2019-03-21T10:58:05.635Z,2.20
2019-03-21T11:00:32.945Z,2.13
2019-03-21T11:03:00.368Z,2.10
2019-03-21T11:05:27.652Z,2.70
2019-03-21T11:07:54.928Z,2.03
2019-03-21T11:10:22.110Z,2.03
2019-03-21T11:12:49.432Z,2.37
2019-03-21T11:15:16.757Z,2.77
2019-03-21T11:17:43.942Z,2.30
2019-03-21T11:20:19.349Z,2.27
2019-03-21T11:22:46.414Z,2.33
2019-03-21T11:25:13.606Z,2.80
2019-03-21T11:27:40.767Z,2.20
2019-03-21T11:30:15.922Z,2.47
2019-03-21T11:32:37.561Z,1.87
2019-03-21T11:35:04.875Z,2.27
2019-03-21T11:37:32.269Z,2.23
2019-03-21T11:39:59.686Z,3.10
2019-03-21T11:42:26.885Z,2.77
2019-03-21T11:44:54.012Z,2.20
2019-03-21T11:47:21.332Z,2.50
2019-03-21T11:49:48.558Z,2.27
2019-03-21T11:52:18.416Z,2.60
2019-03-21T11:54:45.078Z,2.30
2019-03-21T11:57:12.297Z,2.70
2019-03-21T11:59:51.146Z,2.70
2019-03-21T12:02:08.625Z,2.50
2019-03-21T12:04:35.914Z,2.07
2019-03-21T12:07:03.212Z,2.53
2019-03-21T12:09:30.448Z,2.50
2019-03-21T12:11:57.727Z,2.73
2019-03-21T12:14:24.925Z,2.47
2019-03-21T12:16:52.099Z,2.30
2019-03-21T12:19:19.535Z,2.50
2019-03-21T12:21:46.789Z,2.70
2019-03-21T12:24:16.896Z,2.83
2019-03-21T12:26:44.069Z,2.57
2019-03-21T12:29:11.403Z,2.00
2019-03-21T12:31:38.831Z,2.10
2019-03-21T12:34:05.983Z,2.20
2019-03-21T12:36:33.308Z,2.17
2019-03-21T12:39:00.682Z,2.70
2019-03-21T12:41:27.887Z,2.40
2019-03-21T12:43:55.141Z,2.33
2019-03-21T12:46:22.636Z,2.80
2019-03-21T12:48:49.754Z,2.77
2019-03-21T12:51:16.992Z,2.53
2019-03-21T12:53:44.350Z,1.87
2019-03-21T12:56:11.591Z,2.00
2019-03-21T12:58:38.889Z,3.20
2019-03-21T13:01:06.377Z,2.10
2019-03-21T13:03:33.476Z,2.10
2019-03-21T13:06:00.824Z,2.23
2019-03-21T13:08:33.801Z,2.23
2019-03-21T13:10:57.077Z,2.50
2019-03-21T13:13:24.222Z,1.87
2019-03-21T13:15:51.321Z,2.37
2019-03-21T13:18:18.609Z,2.10
2019-03-21T13:20:45.885Z,2.00
2019-03-21T13:23:13.098Z,2.30
2019-03-21T13:25:40.529Z,1.97
2019-03-21T13:28:07.740Z,1.90
2019-03-21T13:30:35.403Z,2.23
2019-03-21T13:33:03.171Z,1.90
2019-03-21T13:35:32.923Z,2.10
2019-03-21T13:37:59.329Z,2.30
2019-03-21T13:40:26.780Z,2.60
2019-03-21T13:42:57.121Z,2.70
2019-03-21T13:45:24.408Z,2.50
2019-03-21T13:47:51.764Z,3.07
2019-03-21T13:50:19.235Z,2.60
2019-03-21T13:52:46.303Z,2.20
2019-03-21T13:55:13.631Z,2.57
2019-03-21T13:57:40.842Z,2.60
2019-03-21T14:00:09.842Z,2.27
2019-03-21T14:02:37.086Z,2.60
2019-03-21T14:05:05.180Z,2.40
2019-03-21T14:07:32.349Z,2.53
2019-03-21T14:09:59.654Z,2.07
2019-03-21T14:12:26.886Z,2.60
2019-03-21T14:14:53.981Z,2.70
2019-03-21T14:17:22.112Z,2.77
2019-03-21T14:19:49.907Z,2.50
2019-03-21T14:22:17.164Z,2.80
2019-03-21T14:24:44.464Z,2.50
2019-03-21T14:27:11.803Z,2.53
2019-03-21T14:29:39.004Z,2.80
2019-03-21T14:32:06.170Z,2.33
2019-03-21T14:34:33.408Z,2.40
2019-03-21T14:37:00.792Z,2.50
2019-03-21T14:39:28.038Z,3.00
2019-03-21T14:41:55.210Z,2.10
2019-03-21T14:44:22.722Z,2.45
2019-03-21T14:46:54.373Z,2.40
2019-03-21T14:49:21.817Z,2.73
2019-03-21T14:51:49.070Z,2.73
2019-03-21T14:54:16.215Z,2.50
2019-03-21T14:56:43.683Z,2.23
2019-03-21T14:59:11.132Z,2.57
2019-03-21T15:01:40.666Z,1.70
2019-03-21T15:04:07.606Z,2.90
2019-03-21T15:06:35.106Z,1.90
2019-03-21T15:09:06.980Z,1.10
2019-03-21T15:11:37.140Z,1.57
2019-03-21T15:14:04.443Z,1.60
2019-03-21T15:16:31.703Z,2.83
2019-03-21T15:19:00.599Z,2.20
2019-03-21T15:21:28.050Z,2.15
2019-03-21T15:23:59.631Z,1.52
2019-03-21T15:26:24.651Z,1.95
2019-03-21T15:28:51.843Z,1.82
2019-03-21T15:31:19.654Z,2.25
2019-03-21T15:33:46.891Z,2.45
2019-03-21T15:36:14.106Z,2.43
2019-03-21T15:38:41.378Z,3.40
2019-03-21T15:41:08.596Z,1.90
2019-03-21T15:43:35.695Z,1.70
2019-03-21T15:46:03.154Z,2.07
2019-03-21T15:48:30.344Z,1.20
2019-03-21T15:51:04.306Z,1.60
2019-03-21T15:53:26.571Z,1.63
2019-03-21T15:55:53.887Z,1.90
2019-03-21T15:58:21.081Z,2.40
2019-03-21T16:00:48.290Z,2.17
2019-03-21T16:03:15.706Z,2.50
2019-03-21T16:05:43.011Z,2.77
2019-03-21T16:08:10.297Z,2.77
2019-03-21T16:10:37.622Z,1.73
2019-03-21T16:13:04.815Z,1.80
2019-03-21T16:15:32.155Z,1.00
2019-03-21T16:17:59.433Z,1.80
2019-03-21T16:20:26.791Z,1.47
2019-03-21T16:22:54.109Z,1.40
2019-03-21T16:25:21.441Z,1.50
2019-03-21T16:27:48.723Z,1.13
2019-03-21T16:30:16.008Z,1.33
2019-03-21T16:32:43.197Z,1.20
2019-03-21T16:35:10.614Z,1.30
2019-03-21T16:37:37.780Z,1.50
2019-03-21T16:40:05.749Z,2.00
2019-03-21T16:42:32.974Z,1.77
2019-03-21T16:45:00.410Z,1.50
2019-03-21T16:47:27.722Z,1.77
2019-03-21T16:49:55.015Z,1.63
2019-03-21T16:52:22.141Z,1.43
2019-03-21T16:54:51.110Z,1.50
2019-03-21T16:57:18.366Z,1.53
2019-03-21T16:59:45.544Z,1.70
2019-03-21T17:02:12.716Z,1.83
2019-03-21T17:04:40.173Z,1.40
2019-03-21T17:07:07.215Z,1.20
2019-03-21T17:09:34.487Z,1.30
2019-03-21T17:12:01.952Z,1.50
2019-03-21T17:14:29.123Z,1.73
2019-03-21T17:16:56.287Z,1.57
2019-03-21T17:19:23.664Z,1.50
2019-03-21T17:21:50.849Z,1.10
2019-03-21T17:24:28.789Z,2.00
2019-03-21T17:26:47.128Z,1.70
2019-03-21T17:29:14.337Z,1.60
2019-03-21T17:31:41.577Z,1.80
2019-03-21T17:34:08.896Z,1.97
2019-03-21T17:36:36.599Z,1.73
2019-03-21T17:39:06.589Z,1.63
2019-03-21T17:41:34.361Z,1.40
2019-03-21T17:44:01.852Z,1.50
2019-03-21T17:46:29.028Z,1.33
2019-03-21T17:48:56.337Z,1.13
2019-03-21T17:51:23.614Z,1.47
2019-03-21T17:53:50.867Z,1.87
2019-03-21T17:56:18.067Z,1.13
2019-03-21T17:58:45.232Z,1.50
2019-03-21T18:01:12.595Z,1.27
2019-03-21T18:03:39.895Z,1.40
2019-03-21T18:06:07.201Z,1.27
2019-03-21T18:08:35.124Z,0.87
2019-03-21T18:11:02.263Z,1.60
2019-03-21T18:13:29.583Z,1.50
2019-03-21T18:15:56.976Z,1.57
2019-03-21T18:18:24.324Z,2.20
2019-03-21T18:20:51.712Z,2.13
2019-03-21T18:23:18.935Z,1.80
2019-03-21T18:25:46.227Z,1.93
2019-03-21T18:28:13.609Z,1.90
2019-03-21T18:30:40.793Z,2.20
2019-03-21T18:33:08.125Z,1.87
2019-03-21T18:35:35.427Z,1.83
2019-03-21T18:38:03.208Z,1.67
2019-03-21T18:40:30.528Z,1.40
2019-03-21T18:42:58.257Z,1.97
2019-03-21T18:45:25.498Z,1.80
2019-03-21T18:47:52.801Z,2.07
2019-03-21T18:50:20.200Z,1.73
2019-03-21T18:52:47.823Z,1.80
2019-03-21T18:55:15.195Z,2.23
2019-03-21T18:57:42.497Z,1.60
2019-03-21T19:00:10.794Z,1.80
2019-03-21T19:02:38.024Z,1.70
2019-03-21T19:05:06.243Z,1.20
2019-03-21T19:07:33.788Z,1.57
2019-03-21T19:10:01.693Z,1.70
2019-03-21T19:12:29.066Z,1.93
2019-03-21T19:14:56.329Z,1.70
2019-03-21T19:17:23.673Z,1.67
2019-03-21T19:19:50.926Z,2.67
2019-03-21T19:22:18.212Z,2.57
2019-03-21T19:24:45.629Z,2.10
2019-03-21T19:27:12.884Z,1.83
2019-03-21T19:29:40.270Z,2.00
2019-03-21T19:32:07.612Z,1.40
2019-03-21T19:34:34.816Z,2.17
2019-03-21T19:37:02.108Z,1.47
2019-03-21T19:39:29.421Z,1.83
2019-03-21T19:41:56.608Z,1.60
2019-03-21T19:44:23.719Z,1.57
2019-03-21T19:46:50.995Z,1.90
2019-03-21T19:49:18.202Z,2.20
2019-03-21T19:51:45.415Z,2.03
2019-03-21T19:54:12.654Z,1.60
2019-03-21T19:56:39.739Z,2.00
2019-03-21T19:59:06.898Z,1.97
2019-03-21T20:01:34.095Z,1.47
2019-03-21T20:04:01.275Z,1.77
2019-03-21T20:06:28.531Z,1.63
2019-03-21T20:08:56.826Z,1.60
2019-03-21T20:11:24.596Z,2.33
2019-03-21T20:13:51.756Z,2.07
2019-03-21T20:16:18.940Z,1.97
2019-03-21T20:18:47.919Z,2.47
2019-03-21T20:21:15.186Z,2.70
2019-03-21T20:23:42.343Z,2.03
2019-03-21T20:26:09.694Z,2.30
2019-03-21T20:28:36.937Z,2.53
2019-03-21T20:31:04.232Z,2.60
2019-03-21T20:33:31.441Z,2.10
2019-03-21T20:35:58.772Z,1.90
2019-03-21T20:38:26.128Z,2.53
2019-03-21T20:40:53.422Z,2.57
2019-03-21T20:43:20.680Z,1.80
2019-03-21T20:45:47.890Z,2.63
2019-03-21T20:48:15.321Z,2.27
2019-03-21T20:50:42.772Z,2.57
2019-03-21T20:53:09.985Z,2.70
2019-03-21T20:55:37.496Z,2.50
2019-03-21T20:58:04.710Z,2.17
2019-03-21T21:00:32.062Z,2.43
2019-03-21T21:02:59.355Z,2.60
2019-03-21T21:05:26.742Z,2.60
2019-03-21T21:07:54.174Z,2.40
2019-03-21T21:10:21.495Z,2.60
2019-03-21T21:12:49.690Z,2.40
2019-03-21T21:15:17.654Z,2.80
2019-03-21T21:17:45.007Z,2.40
2019-03-21T21:20:12.986Z,2.30
2019-03-21T21:22:40.453Z,2.70
2019-03-21T21:25:08.221Z,2.27
2019-03-21T21:27:35.825Z,2.60
2019-03-21T21:30:04.642Z,2.90
2019-03-21T21:32:31.894Z,2.90
2019-03-21T21:34:59.240Z,2.50
2019-03-21T21:37:26.414Z,2.70
2019-03-21T21:39:53.673Z,2.83
2019-03-21T21:42:20.835Z,2.70
2019-03-21T21:44:48.442Z,3.10
2019-03-21T21:47:15.619Z,3.00
2019-03-21T21:49:42.792Z,2.70
2019-03-21T21:52:10.170Z,3.00
2019-03-21T21:54:37.398Z,3.47
2019-03-21T21:57:05.162Z,2.77
2019-03-21T21:59:33.793Z,3.30
2019-03-21T22:02:01.635Z,2.97
2019-03-21T22:04:29.004Z,2.70
2019-03-21T22:06:56.538Z,3.10
2019-03-21T22:09:23.883Z,3.37
2019-03-21T22:11:51.808Z,2.80
2019-03-21T22:14:21.060Z,3.13
2019-03-21T22:16:48.601Z,2.40
2019-03-21T22:19:15.822Z,2.67
2019-03-21T22:21:43.082Z,2.97
2019-03-21T22:24:10.358Z,2.93
2019-03-21T22:26:37.570Z,3.00
2019-03-21T22:29:04.997Z,2.53
2019-03-21T22:31:32.227Z,3.50
2019-03-21T22:33:59.423Z,3.13
2019-03-21T22:36:26.742Z,2.83
2019-03-21T22:38:54.989Z,3.57
2019-03-21T22:41:22.206Z,3.50
2019-03-21T22:43:49.380Z,3.17
2019-03-21T22:46:16.568Z,3.20
2019-03-21T22:48:43.867Z,2.80
2019-03-21T22:51:11.057Z,2.80
2019-03-21T22:53:38.112Z,2.87
2019-03-21T22:56:05.292Z,3.37
2019-03-21T22:58:32.767Z,2.97
2019-03-21T23:01:00.541Z,2.83
2019-03-21T23:03:27.574Z,2.80
2019-03-21T23:05:54.752Z,2.40
2019-03-21T23:08:22.023Z,2.63
2019-03-21T23:10:49.091Z,2.80
2019-03-21T23:13:16.311Z,2.90
2019-03-21T23:15:43.513Z,2.77
2019-03-21T23:18:10.690Z,3.00
2019-03-21T23:20:37.969Z,2.80
2019-03-21T23:23:05.187Z,3.20
2019-03-21T23:25:32.252Z,2.83
2019-03-21T23:27:59.369Z,3.00
2019-03-21T23:30:26.601Z,2.70
2019-03-21T23:32:53.889Z,2.50
2019-03-21T23:35:21.117Z,2.50
2019-03-21T23:37:48.296Z,2.97
2019-03-21T23:40:15.721Z,2.87
2019-03-21T23:42:42.910Z,2.90
2019-03-21T23:45:10.432Z,3.13
2019-03-21T23:47:37.618Z,2.67
2019-03-21T23:50:06.336Z,2.67
2019-03-21T23:52:33.404Z,2.47
2019-03-21T23:55:00.597Z,2.93
2019-03-21T23:57:27.756Z,2.53
2019-03-21T23:59:55.053Z,2.60
